sensor_id;sensor_type;location;lat;lon;timestamp;pressure;altitude;pressure_sealevel;temperature;humidity
2673;BME280;1346;51.558;6.996;2022-08-27T00:02:05;101092.41;;;18.61;100.00
2673;BME280;1346;51.558;6.996;2022-08-27T00:04:33;101099.50;;;18.62;100.00
2673;BME280;1346;51.558;6.996;2022-08-27T00:07:00;101097.81;;;18.61;100.00
2673;BME280;1346;51.558;6.996;2022-08-27T00:09:28;101095.13;;;18.61;100.00
2673;BME280;1346;51.558;6.996;2022-08-27T00:11:57;101093.41;;;18.60;100.00
2673;BME280;1346;51.558;6.996;2022-08-27T00:14:26;101095.31;;;18.59;100.00
2673;BME280;1346;51.558;6.996;2022-08-27T00:16:55;101097.19;;;18.59;100.00
2673;BME280;1346;51.558;6.996;2022-08-27T00:19:23;101093.63;;;18.58;100.00
2673;BME280;1346;51.558;6.996;2022-08-27T00:21:50;101099.03;;;18.58;100.00
2673;BME280;1346;51.558;6.996;2022-08-27T00:24:17;101100.53;;;18.61;100.00
2673;BME280;1346;51.558;6.996;2022-08-27T00:26:44;101094.91;;;18.62;100.00
2673;BME280;1346;51.558;6.996;2022-08-27T00:29:11;101092.66;;;18.66;100.00
2673;BME280;1346;51.558;6.996;2022-08-27T00:31:38;101093.50;;;18.66;100.00
2673;BME280;1346;51.558;6.996;2022-08-27T00:34:05;101090.59;;;18.68;100.00
2673;BME280;1346;51.558;6.996;2022-08-27T00:36:34;101089.94;;;18.66;100.00
2673;BME280;1346;51.558;6.996;2022-08-27T00:39:01;101093.50;;;18.66;100.00
2673;BME280;1346;51.558;6.996;2022-08-27T00:41:29;101099.94;;;18.65;100.00
2673;BME280;1346;51.558;6.996;2022-08-27T00:43:58;101095.38;;;18.66;100.00
2673;BME280;1346;51.558;6.996;2022-08-27T00:46:32;101092.84;;;18.64;100.00
2673;BME280;1346;51.558;6.996;2022-08-27T00:49:05;101099.13;;;18.65;100.00
2673;BME280;1346;51.558;6.996;2022-08-27T00:51:36;101100.16;;;18.64;100.00
2673;BME280;1346;51.558;6.996;2022-08-27T00:54:05;101093.69;;;18.65;100.00
2673;BME280;1346;51.558;6.996;2022-08-27T00:56:40;101100.16;;;18.64;100.00
2673;BME280;1346;51.558;6.996;2022-08-27T00:59:09;101090.91;;;18.58;100.00
2673;BME280;1346;51.558;6.996;2022-08-27T01:01:37;101102.81;;;18.57;100.00
2673;BME280;1346;51.558;6.996;2022-08-27T01:04:24;101097.13;;;18.52;100.00
2673;BME280;1346;51.558;6.996;2022-08-27T01:06:53;101095.63;;;18.50;100.00
2673;BME280;1346;51.558;6.996;2022-08-27T01:09:20;101089.75;;;18.46;100.00
2673;BME280;1346;51.558;6.996;2022-08-27T01:11:47;101094.09;;;18.41;100.00
2673;BME280;1346;51.558;6.996;2022-08-27T01:14:15;101094.47;;;18.38;100.00
2673;BME280;1346;51.558;6.996;2022-08-27T01:16:48;101082.97;;;18.36;100.00
2673;BME280;1346;51.558;6.996;2022-08-27T01:19:28;101089.59;;;18.33;100.00
2673;BME280;1346;51.558;6.996;2022-08-27T01:22:04;101099.22;;;18.36;100.00
2673;BME280;1346;51.558;6.996;2022-08-27T01:24:38;101090.03;;;18.37;100.00
2673;BME280;1346;51.558;6.996;2022-08-27T01:27:11;101082.75;;;18.37;100.00
2673;BME280;1346;51.558;6.996;2022-08-27T01:29:39;101089.84;;;18.38;100.00
2673;BME280;1346;51.558;6.996;2022-08-27T01:32:11;101085.47;;;18.37;100.00
2673;BME280;1346;51.558;6.996;2022-08-27T01:34:39;101088.00;;;18.39;100.00
2673;BME280;1346;51.558;6.996;2022-08-27T01:37:07;101086.31;;;18.38;100.00
2673;BME280;1346;51.558;6.996;2022-08-27T01:39:36;101090.03;;;18.37;100.00
2673;BME280;1346;51.558;6.996;2022-08-27T01:42:07;101084.63;;;18.37;100.00
2673;BME280;1346;51.558;6.996;2022-08-27T01:44:46;101078.34;;;18.36;100.00
2673;BME280;1346;51.558;6.996;2022-08-27T01:47:14;101088.59;;;18.34;100.00
2673;BME280;1346;51.558;6.996;2022-08-27T01:49:41;101088.59;;;18.34;100.00
2673;BME280;1346;51.558;6.996;2022-08-27T01:52:08;101093.16;;;18.34;100.00
2673;BME280;1346;51.558;6.996;2022-08-27T01:54:37;101095.47;;;18.37;100.00
2673;BME280;1346;51.558;6.996;2022-08-27T01:57:05;101092.09;;;18.35;100.00
2673;BME280;1346;51.558;6.996;2022-08-27T01:59:32;101083.78;;;18.36;100.00
2673;BME280;1346;51.558;6.996;2022-08-27T02:01:59;101088.59;;;18.34;100.00
2673;BME280;1346;51.558;6.996;2022-08-27T02:04:28;101088.59;;;18.34;100.00
2673;BME280;1346;51.558;6.996;2022-08-27T02:06:55;101086.88;;;18.33;100.00
2673;BME280;1346;51.558;6.996;2022-08-27T02:09:22;101093.56;;;18.31;100.00
2673;BME280;1346;51.558;6.996;2022-08-27T02:11:51;101094.56;;;18.30;100.00
2673;BME280;1346;51.558;6.996;2022-08-27T02:14:18;101098.31;;;18.29;100.00
2673;BME280;1346;51.558;6.996;2022-08-27T02:16:46;101088.50;;;18.28;100.00
2673;BME280;1346;51.558;6.996;2022-08-27T02:19:13;101077.84;;;18.26;100.00
2673;BME280;1346;51.558;6.996;2022-08-27T02:21:41;101084.31;;;18.25;100.00
2673;BME280;1346;51.558;6.996;2022-08-27T02:24:08;101084.31;;;18.25;100.00
2673;BME280;1346;51.558;6.996;2022-08-27T02:26:35;101078.88;;;18.25;100.00
2673;BME280;1346;51.558;6.996;2022-08-27T02:29:05;101079.72;;;18.26;100.00
2673;BME280;1346;51.558;6.996;2022-08-27T02:31:32;101067.19;;;18.25;100.00
2673;BME280;1346;51.558;6.996;2022-08-27T02:33:59;101075.97;;;18.27;100.00
2673;BME280;1346;51.558;6.996;2022-08-27T02:36:26;101082.44;;;18.26;100.00
2673;BME280;1346;51.558;6.996;2022-08-27T02:38:54;101072.41;;;18.26;100.00
2673;BME280;1346;51.558;6.996;2022-08-27T02:41:21;101074.94;;;18.28;100.00
2673;BME280;1346;51.558;6.996;2022-08-27T02:43:48;101076.81;;;18.27;100.00
2673;BME280;1346;51.558;6.996;2022-08-27T02:46:16;101073.91;;;18.29;100.00
2673;BME280;1346;51.558;6.996;2022-08-27T02:48:43;101067.84;;;18.27;100.00
2673;BME280;1346;51.558;6.996;2022-08-27T02:51:10;101059.03;;;18.25;100.00
2673;BME280;1346;51.558;6.996;2022-08-27T02:53:38;101068.88;;;18.26;100.00
2673;BME280;1346;51.558;6.996;2022-08-27T02:56:06;101067.19;;;18.25;100.00
2673;BME280;1346;51.558;6.996;2022-08-27T02:58:33;101069.91;;;18.25;100.00
2673;BME280;1346;51.558;6.996;2022-08-27T03:01:00;101073.66;;;18.24;100.00
2673;BME280;1346;51.558;6.996;2022-08-27T03:03:29;101081.13;;;18.22;100.00
2673;BME280;1346;51.558;6.996;2022-08-27T03:05:57;101074.03;;;18.21;100.00
2673;BME280;1346;51.558;6.996;2022-08-27T03:08:25;101075.72;;;18.22;100.00
2673;BME280;1346;51.558;6.996;2022-08-27T03:10:52;101071.97;;;18.23;100.00
2673;BME280;1346;51.558;6.996;2022-08-27T03:13:19;101073.84;;;18.22;100.00
2673;BME280;1346;51.558;6.996;2022-08-27T03:15:46;101067.78;;;18.20;100.00
2673;BME280;1346;51.558;6.996;2022-08-27T03:18:14;101070.69;;;18.19;100.00
2673;BME280;1346;51.558;6.996;2022-08-27T03:20:47;101069.63;;;18.20;100.00
2673;BME280;1346;51.558;6.996;2022-08-27T03:23:15;101076.09;;;18.19;100.00
2673;BME280;1346;51.558;6.996;2022-08-27T03:25:44;101076.75;;;18.21;100.00
2673;BME280;1346;51.558;6.996;2022-08-27T03:28:11;101073.84;;;18.22;100.00
2673;BME280;1346;51.558;6.996;2022-08-27T03:30:40;101079.06;;;18.24;100.00
2673;BME280;1346;51.558;6.996;2022-08-27T03:33:11;101070.94;;;18.24;100.00
2673;BME280;1346;51.558;6.996;2022-08-27T03:35:38;101082.63;;;18.24;100.00
2673;BME280;1346;51.558;6.996;2022-08-27T03:38:06;101079.06;;;18.24;100.00
2673;BME280;1346;51.558;6.996;2022-08-27T03:40:33;101076.56;;;18.22;100.00
2673;BME280;1346;51.558;6.996;2022-08-27T03:43:00;101070.94;;;18.24;100.00
2673;BME280;1346;51.558;6.996;2022-08-27T03:45:27;101088.22;;;18.23;100.00
2673;BME280;1346;51.558;6.996;2022-08-27T03:47:54;101082.81;;;18.23;100.00
2673;BME280;1346;51.558;6.996;2022-08-27T03:50:22;101078.63;;;18.20;100.00
2673;BME280;1346;51.558;6.996;2022-08-27T03:52:48;101076.09;;;18.19;100.00
2673;BME280;1346;51.558;6.996;2022-08-27T03:55:17;101072.53;;;18.18;100.00
2673;BME280;1346;51.558;6.996;2022-08-27T03:57:44;101075.44;;;18.17;100.00
2673;BME280;1346;51.558;6.996;2022-08-27T04:00:11;101073.59;;;18.17;100.00
2673;BME280;1346;51.558;6.996;2022-08-27T04:02:40;101073.78;;;18.16;100.00
2673;BME280;1346;51.558;6.996;2022-08-27T04:05:08;101082.75;;;18.16;100.00
2673;BME280;1346;51.558;6.996;2022-08-27T04:07:37;101082.94;;;18.15;100.00
2673;BME280;1346;51.558;6.996;2022-08-27T04:10:06;101086.03;;;18.12;100.00
2673;BME280;1346;51.558;6.996;2022-08-27T04:12:35;101088.28;;;18.08;100.00
2673;BME280;1346;51.558;6.996;2022-08-27T04:15:04;101084.09;;;18.05;100.00
2673;BME280;1346;51.558;6.996;2022-08-27T04:17:31;101083.25;;;18.05;100.00
2673;BME280;1346;51.558;6.996;2022-08-27T04:19:58;101081.38;;;18.05;100.00
2673;BME280;1346;51.558;6.996;2022-08-27T04:22:25;101083.06;;;18.06;100.00
2673;BME280;1346;51.558;6.996;2022-08-27T04:24:53;101079.50;;;18.06;100.00
2673;BME280;1346;51.558;6.996;2022-08-27T04:27:20;101084.09;;;18.05;100.00
2673;BME280;1346;51.558;6.996;2022-08-27T04:29:53;101079.69;;;18.04;100.00
2673;BME280;1346;51.558;6.996;2022-08-27T04:32:21;101083.47;;;18.03;100.00
2673;BME280;1346;51.558;6.996;2022-08-27T04:34:52;101086.78;;;18.05;100.00
2673;BME280;1346;51.558;6.996;2022-08-27T04:37:20;101087.84;;;18.04;100.00
2673;BME280;1346;51.558;6.996;2022-08-27T04:39:47;101082.22;;;18.06;100.00
2673;BME280;1346;51.558;6.996;2022-08-27T04:42:16;101082.41;;;18.04;100.00
2673;BME280;1346;51.558;6.996;2022-08-27T04:44:44;101080.75;;;18.03;100.00
2673;BME280;1346;51.558;6.996;2022-08-27T04:47:14;101089.69;;;18.04;100.00
2673;BME280;1346;51.558;6.996;2022-08-27T04:49:42;101078.66;;;18.05;100.00
2673;BME280;1346;51.558;6.996;2022-08-27T04:52:09;101084.09;;;18.05;100.00
2673;BME280;1346;51.558;6.996;2022-08-27T04:54:36;101086.78;;;18.05;100.00
2673;BME280;1346;51.558;6.996;2022-08-27T04:57:05;101089.50;;;18.05;100.00
2673;BME280;1346;51.558;6.996;2022-08-27T04:59:33;101087.63;;;18.06;100.00
2673;BME280;1346;51.558;6.996;2022-08-27T05:02:01;101085.78;;;18.06;100.00
2673;BME280;1346;51.558;6.996;2022-08-27T05:04:29;101089.34;;;18.07;100.00
2673;BME280;1346;51.558;6.996;2022-08-27T05:06:57;101098.94;;;18.09;100.00
2673;BME280;1346;51.558;6.996;2022-08-27T05:09:25;101098.94;;;18.09;100.00
2673;BME280;1346;51.558;6.996;2022-08-27T05:11:52;101104.38;;;18.09;100.00
2673;BME280;1346;51.558;6.996;2022-08-27T05:14:20;101104.38;;;18.09;100.00
2673;BME280;1346;51.558;6.996;2022-08-27T05:16:48;101100.44;;;18.12;100.00
2673;BME280;1346;51.558;6.996;2022-08-27T05:19:16;101096.03;;;18.11;100.00
2673;BME280;1346;51.558;6.996;2022-08-27T05:21:47;101095.84;;;18.13;100.00
2673;BME280;1346;51.558;6.996;2022-08-27T05:24:16;101106.03;;;18.10;100.00
2673;BME280;1346;51.558;6.996;2022-08-27T05:26:44;101101.00;;;18.07;100.00
2673;BME280;1346;51.558;6.996;2022-08-27T05:29:12;101101.00;;;18.07;100.00
2673;BME280;1346;51.558;6.996;2022-08-27T05:31:40;101096.63;;;18.06;100.00
2673;BME280;1346;51.558;6.996;2022-08-27T05:34:07;101101.84;;;18.08;100.00
2673;BME280;1346;51.558;6.996;2022-08-27T05:36:36;101098.28;;;18.07;100.00
2673;BME280;1346;51.558;6.996;2022-08-27T05:39:06;101095.78;;;18.06;100.00
2673;BME280;1346;51.558;6.996;2022-08-27T05:41:35;101098.28;;;18.07;100.00
2673;BME280;1346;51.558;6.996;2022-08-27T05:44:05;101101.84;;;18.08;100.00
2673;BME280;1346;51.558;6.996;2022-08-27T05:46:36;101098.09;;;18.09;100.00
2673;BME280;1346;51.558;6.996;2022-08-27T05:49:03;101101.00;;;18.07;100.00
2673;BME280;1346;51.558;6.996;2022-08-27T05:51:33;101104.75;;;18.06;100.00
2673;BME280;1346;51.558;6.996;2022-08-27T05:54:04;101110.19;;;18.06;100.00
2673;BME280;1346;51.558;6.996;2022-08-27T05:56:36;101113.09;;;18.05;100.00
2673;BME280;1346;51.558;6.996;2022-08-27T05:59:04;101106.81;;;18.04;100.00
2673;BME280;1346;51.558;6.996;2022-08-27T06:01:50;101107.47;;;18.06;100.00
2673;BME280;1346;51.558;6.996;2022-08-27T06:04:19;101117.28;;;18.07;100.00
2673;BME280;1346;51.558;6.996;2022-08-27T06:06:47;101105.22;;;18.10;100.00
2673;BME280;1346;51.558;6.996;2022-08-27T06:09:19;101104.63;;;18.15;100.00
2673;BME280;1346;51.558;6.996;2022-08-27T06:11:47;101109.66;;;18.18;100.00
2673;BME280;1346;51.558;6.996;2022-08-27T06:14:15;101113.22;;;18.18;100.00
2673;BME280;1346;51.558;6.996;2022-08-27T06:16:42;101114.88;;;18.19;100.00
2673;BME280;1346;51.558;6.996;2022-08-27T06:19:11;101111.81;;;18.22;100.00
2673;BME280;1346;51.558;6.996;2022-08-27T06:21:38;101118.72;;;18.25;100.00
2673;BME280;1346;51.558;6.996;2022-08-27T06:24:07;101123.75;;;18.28;100.00
2673;BME280;1346;51.558;6.996;2022-08-27T06:26:34;101122.53;;;18.30;100.00
2673;BME280;1346;51.558;6.996;2022-08-27T06:29:04;101124.19;;;18.31;100.00
2673;BME280;1346;51.558;6.996;2022-08-27T06:31:32;101125.72;;;18.34;100.00
2673;BME280;1346;51.558;6.996;2022-08-27T06:34:03;101128.03;;;18.37;100.00
2673;BME280;1346;51.558;6.996;2022-08-27T06:36:31;101129.53;;;18.39;100.00
2673;BME280;1346;51.558;6.996;2022-08-27T06:38:59;101125.59;;;18.42;100.00
2673;BME280;1346;51.558;6.996;2022-08-27T06:41:28;101123.53;;;18.44;100.00
2673;BME280;1346;51.558;6.996;2022-08-27T06:43:55;101124.44;;;18.51;100.00
2673;BME280;1346;51.558;6.996;2022-08-27T06:46:26;101120.28;;;18.55;100.00
2673;BME280;1346;51.558;6.996;2022-08-27T06:48:56;101125.34;;;18.58;100.00
2673;BME280;1346;51.558;6.996;2022-08-27T06:51:25;101126.44;;;18.63;100.00
2673;BME280;1346;51.558;6.996;2022-08-27T06:53:55;101133.81;;;18.69;100.00
2673;BME280;1346;51.558;6.996;2022-08-27T06:56:22;101133.88;;;18.76;100.00
2673;BME280;1346;51.558;6.996;2022-08-27T06:58:52;101135.78;;;18.82;100.00
2673;BME280;1346;51.558;6.996;2022-08-27T07:01:22;101129.38;;;18.89;100.00
2673;BME280;1346;51.558;6.996;2022-08-27T07:03:53;101134.22;;;18.94;100.00
2673;BME280;1346;51.558;6.996;2022-08-27T07:06:20;101133.44;;;19.00;100.00
2673;BME280;1346;51.558;6.996;2022-08-27T07:08:48;101132.88;;;19.11;100.00
2673;BME280;1346;51.558;6.996;2022-08-27T07:11:15;101135.84;;;19.16;100.00
2673;BME280;1346;51.558;6.996;2022-08-27T07:13:45;101138.81;;;19.21;100.00
2673;BME280;1346;51.558;6.996;2022-08-27T07:16:17;101129.22;;;19.25;100.00
2673;BME280;1346;51.558;6.996;2022-08-27T07:18:45;101130.53;;;19.29;100.00
2673;BME280;1346;51.558;6.996;2022-08-27T07:21:13;101130.16;;;19.32;100.00
2673;BME280;1346;51.558;6.996;2022-08-27T07:23:40;101120.75;;;19.35;100.00
2673;BME280;1346;51.558;6.996;2022-08-27T07:26:09;101127.88;;;19.36;100.00
2673;BME280;1346;51.558;6.996;2022-08-27T07:28:38;101125.59;;;19.39;100.00
2673;BME280;1346;51.558;6.996;2022-08-27T07:31:07;101127.28;;;19.40;100.00
2673;BME280;1346;51.558;6.996;2022-08-27T07:33:35;101130.22;;;19.45;100.00
2673;BME280;1346;51.558;6.996;2022-08-27T07:36:03;101131.72;;;19.48;100.00
2673;BME280;1346;51.558;6.996;2022-08-27T07:38:32;101129.44;;;19.51;100.00
2673;BME280;1346;51.558;6.996;2022-08-27T07:41:04;101129.69;;;19.56;100.00
2673;BME280;1346;51.558;6.996;2022-08-27T07:43:31;101130.72;;;19.62;100.00
2673;BME280;1346;51.558;6.996;2022-08-27T07:46:16;101129.72;;;19.63;100.00
2673;BME280;1346;51.558;6.996;2022-08-27T07:48:43;101132.63;;;19.61;100.00
2673;BME280;1346;51.558;6.996;2022-08-27T07:51:13;101135.16;;;19.63;100.00
2673;BME280;1346;51.558;6.996;2022-08-27T07:53:43;101138.50;;;19.65;100.00
2673;BME280;1346;51.558;6.996;2022-08-27T07:56:11;101139.13;;;19.67;100.00
2673;BME280;1346;51.558;6.996;2022-08-27T07:58:39;101140.41;;;19.71;100.00
2673;BME280;1346;51.558;6.996;2022-08-27T08:01:08;101135.81;;;19.71;100.00
2673;BME280;1346;51.558;6.996;2022-08-27T08:03:35;101146.69;;;19.71;100.00
2673;BME280;1346;51.558;6.996;2022-08-27T08:06:04;101145.88;;;19.77;100.00
2673;BME280;1346;51.558;6.996;2022-08-27T08:08:32;101139.44;;;19.85;100.00
2673;BME280;1346;51.558;6.996;2022-08-27T08:11:01;101142.16;;;19.85;100.00
2673;BME280;1346;51.558;6.996;2022-08-27T08:13:29;101146.53;;;19.86;100.00
2673;BME280;1346;51.558;6.996;2022-08-27T08:15:57;101148.81;;;19.82;100.00
2673;BME280;1346;51.558;6.996;2022-08-27T08:18:25;101144.66;;;19.86;100.00
2673;BME280;1346;51.558;6.996;2022-08-27T08:20:59;101152.81;;;19.86;100.00
2673;BME280;1346;51.558;6.996;2022-08-27T08:23:26;101157.22;;;19.87;100.00
2673;BME280;1346;51.558;6.996;2022-08-27T08:25:54;101161.22;;;19.91;100.00
2673;BME280;1346;51.558;6.996;2022-08-27T08:28:23;101156.63;;;19.92;100.00
2673;BME280;1346;51.558;6.996;2022-08-27T08:30:51;101154.94;;;19.97;100.00
2673;BME280;1346;51.558;6.996;2022-08-27T08:33:18;101166.69;;;20.04;100.00
2673;BME280;1346;51.558;6.996;2022-08-27T08:35:45;101167.34;;;20.13;100.00
2673;BME280;1346;51.558;6.996;2022-08-27T08:38:13;101166.59;;;20.25;100.00
2673;BME280;1346;51.558;6.996;2022-08-27T08:40:43;101167.47;;;20.32;100.00
2673;BME280;1346;51.558;6.996;2022-08-27T08:43:26;101174.59;;;20.40;100.00
2673;BME280;1346;51.558;6.996;2022-08-27T08:45:56;101170.44;;;20.51;100.00
2673;BME280;1346;51.558;6.996;2022-08-27T08:48:27;101166.69;;;20.58;100.00
2673;BME280;1346;51.558;6.996;2022-08-27T08:51:00;101164.19;;;20.70;100.00
2673;BME280;1346;51.558;6.996;2022-08-27T08:53:39;101165.44;;;20.74;100.00
2673;BME280;1346;51.558;6.996;2022-08-27T08:56:11;101159.59;;;20.77;100.00
2673;BME280;1346;51.558;6.996;2022-08-27T08:58:47;101158.53;;;20.91;100.00
2673;BME280;1346;51.558;6.996;2022-08-27T09:01:19;101171.78;;;21.00;100.00
2673;BME280;1346;51.558;6.996;2022-08-27T09:03:53;101168.41;;;21.11;100.00
2673;BME280;1346;51.558;6.996;2022-08-27T09:06:36;101175.34;;;21.20;100.00
2673;BME280;1346;51.558;6.996;2022-08-27T09:09:15;101175.97;;;21.29;100.00
2673;BME280;1346;51.558;6.996;2022-08-27T09:11:55;101182.25;;;21.36;100.00
2673;BME280;1346;51.558;6.996;2022-08-27T09:14:35;101177.81;;;21.41;100.00
2673;BME280;1346;51.558;6.996;2022-08-27T09:17:04;101169.03;;;21.39;100.00
2673;BME280;1346;51.558;6.996;2022-08-27T09:19:32;101172.38;;;21.41;100.00
2673;BME280;1346;51.558;6.996;2022-08-27T09:22:05;101174.91;;;21.43;100.00
2673;BME280;1346;51.558;6.996;2022-08-27T09:24:43;101182.25;;;21.36;100.00
2673;BME280;1346;51.558;6.996;2022-08-27T09:27:15;101181.81;;;21.39;100.00
2673;BME280;1346;51.558;6.996;2022-08-27T09:29:50;101181.56;;;21.53;100.00
2673;BME280;1346;51.558;6.996;2022-08-27T09:32:22;101179.06;;;21.65;100.00
2673;BME280;1346;51.558;6.996;2022-08-27T09:34:50;101176.72;;;21.75;100.00
2673;BME280;1346;51.558;6.996;2022-08-27T09:37:21;101181.75;;;21.85;100.00
2673;BME280;1346;51.558;6.996;2022-08-27T09:39:52;101175.41;;;21.91;100.00
2673;BME280;1346;51.558;6.996;2022-08-27T09:42:28;101173.75;;;21.90;100.00
2673;BME280;1346;51.558;6.996;2022-08-27T09:44:58;101172.91;;;21.89;100.00
2673;BME280;1346;51.558;6.996;2022-08-27T09:47:26;101168.31;;;21.90;100.00
2673;BME280;1346;51.558;6.996;2022-08-27T09:50:06;101166.22;;;21.85;100.00
2673;BME280;1346;51.558;6.996;2022-08-27T09:52:36;101166.44;;;21.77;
2673;BME280;1346;51.558;6.996;2022-08-27T09:55:10;101171.28;;;21.62;100.00
2673;BME280;1346;51.558;6.996;2022-08-27T09:57:40;101170.28;;;21.56;100.00
2673;BME280;1346;51.558;6.996;2022-08-27T10:00:15;101167.75;;;21.55;100.00
2673;BME280;1346;51.558;6.996;2022-08-27T10:02:49;101165.00;;;21.62;100.00
2673;BME280;1346;51.558;6.996;2022-08-27T10:05:28;101158.69;;;21.87;100.00
2673;BME280;1346;51.558;6.996;2022-08-27T10:08:00;101168.63;;;22.19;100.00
2673;BME280;1346;51.558;6.996;2022-08-27T10:10:39;101155.81;;;22.57;99.51
2673;BME280;1346;51.558;6.996;2022-08-27T10:13:14;101159.03;;;23.04;98.38
2673;BME280;1346;51.558;6.996;2022-08-27T10:15:58;101157.06;;;23.35;95.38
2673;BME280;1346;51.558;6.996;2022-08-27T10:18:34;101157.25;;;23.40;94.30
2673;BME280;1346;51.558;6.996;2022-08-27T10:21:14;101164.41;;;23.41;93.68
2673;BME280;1346;51.558;6.996;2022-08-27T10:23:51;101165.78;;;23.26;91.85
2673;BME280;1346;51.558;6.996;2022-08-27T10:26:27;101166.31;;;23.10;92.95
2673;BME280;1346;51.558;6.996;2022-08-27T10:29:08;101160.91;;;23.03;93.71
2673;BME280;1346;51.558;6.996;2022-08-27T10:31:46;101157.38;;;23.03;94.06
2673;BME280;1346;51.558;6.996;2022-08-27T10:34:29;101163.44;;;23.05;92.92
2673;BME280;1346;51.558;6.996;2022-08-27T10:37:09;101157.09;;;23.11;90.40
2673;BME280;1346;51.558;6.996;2022-08-27T10:40:00;101163.34;;;23.18;87.73
2673;BME280;1346;51.558;6.996;2022-08-27T10:42:34;101162.44;;;23.24;87.14
2673;BME280;1346;51.558;6.996;2022-08-27T10:45:13;101157.56;;;23.26;86.13
2673;BME280;1346;51.558;6.996;2022-08-27T10:47:56;101158.41;;;23.26;87.41
2673;BME280;1346;51.558;6.996;2022-08-27T10:50:32;101164.31;;;23.30;86.70
2673;BME280;1346;51.558;6.996;2022-08-27T10:53:05;101167.06;;;23.48;87.56
2673;BME280;1346;51.558;6.996;2022-08-27T10:55:39;101152.03;;;23.57;86.00
2673;BME280;1346;51.558;6.996;2022-08-27T10:58:30;101154.31;;;23.60;85.58
2673;BME280;1346;51.558;6.996;2022-08-27T11:01:05;101154.00;;;23.68;83.79
2673;BME280;1346;51.558;6.996;2022-08-27T11:03:42;101155.47;;;23.70;82.60
2673;BME280;1346;51.558;6.996;2022-08-27T11:06:20;101157.88;;;23.78;82.94
2673;BME280;1346;51.558;6.996;2022-08-27T11:08:54;101156.81;;;23.79;83.18
2673;BME280;1346;51.558;6.996;2022-08-27T11:11:32;101155.31;;;23.83;83.76
2673;BME280;1346;51.558;6.996;2022-08-27T11:14:01;101160.47;;;23.73;82.07
2673;BME280;1346;51.558;6.996;2022-08-27T11:16:35;101160.31;;;23.68;83.31
2673;BME280;1346;51.558;6.996;2022-08-27T11:19:13;101156.28;;;23.53;83.41
2673;BME280;1346;51.558;6.996;2022-08-27T11:21:58;101150.66;;;23.48;84.67
2673;BME280;1346;51.558;6.996;2022-08-27T11:24:31;101162.28;;;23.43;85.70
2673;BME280;1346;51.558;6.996;2022-08-27T11:27:06;101155.97;;;23.43;85.68
2673;BME280;1346;51.558;6.996;2022-08-27T11:29:38;101156.44;;;23.40;87.69
2673;BME280;1346;51.558;6.996;2022-08-27T11:32:18;101146.47;;;23.21;87.05
2673;BME280;1346;51.558;6.996;2022-08-27T11:34:52;101160.44;;;23.13;87.18
2673;BME280;1346;51.558;6.996;2022-08-27T11:37:44;101151.13;;;22.96;88.16
2673;BME280;1346;51.558;6.996;2022-08-27T11:40:35;101155.81;;;22.89;89.16
2673;BME280;1346;51.558;6.996;2022-08-27T11:43:09;101158.53;;;22.89;91.01
2673;BME280;1346;51.558;6.996;2022-08-27T11:45:53;101158.13;;;22.85;90.96
2673;BME280;1346;51.558;6.996;2022-08-27T11:48:24;101157.69;;;22.88;90.40
2673;BME280;1346;51.558;6.996;2022-08-27T11:50:56;101164.00;;;22.89;89.39
2673;BME280;1346;51.558;6.996;2022-08-27T11:53:28;101161.09;;;22.84;90.00
2673;BME280;1346;51.558;6.996;2022-08-27T11:55:57;101160.47;;;22.82;90.49
2673;BME280;1346;51.558;6.996;2022-08-27T11:58:28;101160.31;;;22.77;90.35
2673;BME280;1346;51.558;6.996;2022-08-27T12:00:56;101157.84;;;22.68;89.94
2673;BME280;1346;51.558;6.996;2022-08-27T12:03:31;101158.06;;;22.67;90.59
2673;BME280;1346;51.558;6.996;2022-08-27T12:06:20;101160.97;;;22.72;90.03
2673;BME280;1346;51.558;6.996;2022-08-27T12:08:49;101163.09;;;22.70;89.45
2673;BME280;1346;51.558;6.996;2022-08-27T12:11:30;101159.50;;;22.69;89.30
2673;BME280;1346;51.558;6.996;2022-08-27T12:14:16;101166.22;;;22.73;90.39
2673;BME280;1346;51.558;6.996;2022-08-27T12:16:55;101164.06;;;22.75;89.42
2673;BME280;1346;51.558;6.996;2022-08-27T12:19:39;101165.16;;;22.74;89.68
2673;BME280;1346;51.558;6.996;2022-08-27T12:22:33;101161.34;;;22.75;90.00
2673;BME280;1346;51.558;6.996;2022-08-27T12:25:24;101158.59;;;22.75;88.46
2673;BME280;1346;51.558;6.996;2022-08-27T12:27:57;101158.03;;;22.73;88.08
2673;BME280;1346;51.558;6.996;2022-08-27T12:30:31;101161.34;;;22.75;88.40
2673;BME280;1346;51.558;6.996;2022-08-27T12:33:07;101156.94;;;22.74;88.56
2673;BME280;1346;51.558;6.996;2022-08-27T12:35:43;101154.66;;;22.71;88.96
2673;BME280;1346;51.558;6.996;2022-08-27T12:38:18;101157.41;;;22.71;89.00
2673;BME280;1346;51.558;6.996;2022-08-27T12:40:49;101161.56;;;22.74;88.18
2673;BME280;1346;51.558;6.996;2022-08-27T12:43:19;101152.34;;;22.75;88.21
2673;BME280;1346;51.558;6.996;2022-08-27T12:45:49;101149.81;;;22.73;87.80
2673;BME280;1346;51.558;6.996;2022-08-27T12:48:20;101152.78;;;22.72;87.97
2673;BME280;1346;51.558;6.996;2022-08-27T12:50:51;101151.31;;;22.69;87.51
2673;BME280;1346;51.558;6.996;2022-08-27T12:53:42;101154.44;;;22.73;86.83
2673;BME280;1346;51.558;6.996;2022-08-27T12:56:31;101152.94;;;22.77;86.36
2673;BME280;1346;51.558;6.996;2022-08-27T12:59:20;101154.78;;;22.83;86.03
2673;BME280;1346;51.558;6.996;2022-08-27T13:02:00;101157.06;;;22.86;86.04
2673;BME280;1346;51.558;6.996;2022-08-27T13:04:38;101150.50;;;22.94;85.51
2673;BME280;1346;51.558;6.996;2022-08-27T13:07:05;101146.63;;;23.01;84.10
2673;BME280;1346;51.558;6.996;2022-08-27T13:09:36;101143.25;;;23.06;85.10
2673;BME280;1346;51.558;6.996;2022-08-27T13:12:10;101144.44;;;23.16;85.48
2673;BME280;1346;51.558;6.996;2022-08-27T13:14:40;101142.66;;;23.22;83.74
2673;BME280;1346;51.558;6.996;2022-08-27T13:17:09;101138.66;;;23.24;82.71
2673;BME280;1346;51.558;6.996;2022-08-27T13:19:45;101141.75;;;23.34;81.72
2673;BME280;1346;51.558;6.996;2022-08-27T13:22:21;101134.88;;;23.50;80.56
2673;BME280;1346;51.558;6.996;2022-08-27T13:24:52;101140.94;;;23.70;79.26